createdAt,value
2023-03-06T00:01:30.498Z,1.27
2023-03-06T00:03:56.900Z,1.27
2023-03-06T00:06:23.305Z,1.27
2023-03-06T00:08:49.737Z,1.26
2023-03-06T00:11:16.128Z,1.29
2023-03-06T00:13:42.527Z,1.29
2023-03-06T00:16:09.076Z,1.31
2023-03-06T00:18:35.729Z,1.31
2023-03-06T00:21:02.138Z,1.24
2023-03-06T00:23:28.580Z,1.25
2023-03-06T00:25:55.120Z,1.28
2023-03-06T00:28:21.568Z,1.24
2023-03-06T00:30:48.354Z,1.29
2023-03-06T00:33:14.828Z,1.29
2023-03-06T00:35:41.649Z,1.27
2023-03-06T00:38:08.528Z,1.31
2023-03-06T00:40:34.944Z,1.37
2023-03-06T00:43:01.361Z,1.38
2023-03-06T00:45:27.818Z,1.39
2023-03-06T00:47:54.263Z,1.31
2023-03-06T00:50:20.689Z,1.28
2023-03-06T00:52:47.412Z,1.21
2023-03-06T00:55:13.828Z,1.20
2023-03-06T00:57:40.265Z,1.18
2023-03-06T01:00:07.251Z,1.21
2023-03-06T01:02:33.721Z,1.28
2023-03-06T01:05:00.136Z,1.26
2023-03-06T01:07:27.798Z,1.22
2023-03-06T01:09:54.247Z,1.17
2023-03-06T01:12:23.279Z,1.15
2023-03-06T01:14:49.979Z,1.15
2023-03-06T01:17:16.425Z,1.14
2023-03-06T01:19:42.944Z,1.15
2023-03-06T01:22:09.333Z,1.17
2023-03-06T01:24:35.766Z,1.16
2023-03-06T01:27:02.173Z,1.18
2023-03-06T01:29:28.802Z,1.28
2023-03-06T01:31:55.245Z,1.18
2023-03-06T01:34:21.651Z,1.19
2023-03-06T01:36:48.288Z,1.20
2023-03-06T01:39:14.687Z,1.18
2023-03-06T01:41:41.110Z,1.15
2023-03-06T01:44:07.622Z,1.17
2023-03-06T01:46:42.274Z,1.19
2023-03-06T01:49:22.122Z,1.19
2023-03-06T01:52:17.165Z,1.15
2023-03-06T01:54:52.697Z,1.12
2023-03-06T01:57:20.686Z,1.12
2023-03-06T01:59:52.985Z,1.17
2023-03-06T02:02:20.722Z,1.18
2023-03-06T02:04:47.874Z,1.18
2023-03-06T02:07:18.948Z,1.16
2023-03-06T02:09:45.679Z,1.12
2023-03-06T02:12:17.482Z,1.17
2023-03-06T02:14:45.023Z,1.15
2023-03-06T02:17:13.265Z,1.13
2023-03-06T02:20:13.400Z,1.10
2023-03-06T02:22:48.780Z,1.10
2023-03-06T02:25:38.538Z,1.07
2023-03-06T02:28:07.227Z,1.09
2023-03-06T02:30:34.413Z,1.10
2023-03-06T02:33:01.262Z,1.09
2023-03-06T02:35:35.059Z,1.09
2023-03-06T02:38:14.180Z,1.10
2023-03-06T02:40:43.427Z,1.08
2023-03-06T02:43:11.090Z,1.07
2023-03-06T02:45:49.187Z,1.04
2023-03-06T02:48:18.127Z,1.02
2023-03-06T02:50:44.929Z,1.02
2023-03-06T02:53:13.733Z,1.06
2023-03-06T02:55:40.300Z,1.02
2023-03-06T02:58:06.858Z,1.01
2023-03-06T03:00:34.074Z,1.00
2023-03-06T03:03:01.089Z,0.95
2023-03-06T03:05:27.574Z,0.97
2023-03-06T03:07:53.982Z,0.93
2023-03-06T03:10:20.744Z,0.76
2023-03-06T03:12:47.227Z,0.80
2023-03-06T03:15:13.806Z,0.83
2023-03-06T03:17:41.085Z,0.84
2023-03-06T03:20:12.244Z,0.91
2023-03-06T03:22:38.955Z,0.95
2023-03-06T03:25:05.970Z,0.96
2023-03-06T03:27:32.409Z,0.97
2023-03-06T03:30:00.198Z,0.96
2023-03-06T03:32:26.882Z,0.97
2023-03-06T03:34:55.883Z,1.00
2023-03-06T03:37:23.399Z,0.96
2023-03-06T03:39:49.785Z,0.95
2023-03-06T03:42:16.185Z,0.91
2023-03-06T03:44:45.789Z,0.94
2023-03-06T03:47:12.160Z,0.93
2023-03-06T03:49:38.974Z,0.95
2023-03-06T03:52:05.588Z,0.92
2023-03-06T03:54:31.973Z,0.91
2023-03-06T03:56:58.321Z,0.96
2023-03-06T03:59:24.914Z,0.93
2023-03-06T04:01:52.197Z,1.03
2023-03-06T04:04:18.648Z,1.02
2023-03-06T04:06:45.069Z,0.98
2023-03-06T04:09:11.457Z,0.96
2023-03-06T04:11:38.510Z,0.97
2023-03-06T04:14:05.065Z,1.02
2023-03-06T04:16:31.499Z,1.04
2023-03-06T04:18:57.897Z,1.08
2023-03-06T04:21:26.889Z,0.99
2023-03-06T04:23:53.264Z,1.06
2023-03-06T04:26:19.661Z,1.00
2023-03-06T04:28:46.040Z,1.04
2023-03-06T04:31:13.288Z,0.94
2023-03-06T04:33:39.886Z,0.93
2023-03-06T04:36:06.535Z,0.94
2023-03-06T04:38:33.018Z,0.91
2023-03-06T04:40:59.455Z,0.94
2023-03-06T04:43:26.255Z,0.93
2023-03-06T04:45:52.698Z,0.90
2023-03-06T04:48:19.416Z,0.86
2023-03-06T04:50:45.961Z,0.87
2023-03-06T04:53:13.398Z,0.93
2023-03-06T04:55:39.834Z,0.91
2023-03-06T04:58:06.289Z,0.95
2023-03-06T05:00:32.749Z,0.91
2023-03-06T05:03:00.768Z,0.86
2023-03-06T05:05:28.089Z,0.92
2023-03-06T05:07:54.705Z,0.92
2023-03-06T05:10:21.510Z,0.95
2023-03-06T05:12:47.981Z,0.92
2023-03-06T05:15:16.519Z,0.84
2023-03-06T05:17:43.688Z,0.80
2023-03-06T05:20:11.802Z,0.81
2023-03-06T05:22:38.537Z,0.86
2023-03-06T05:25:05.961Z,0.82
2023-03-06T05:27:32.451Z,0.84
2023-03-06T05:29:59.075Z,0.85
2023-03-06T05:32:25.583Z,0.91
2023-03-06T05:34:54.340Z,0.89
2023-03-06T05:37:22.877Z,0.81
2023-03-06T05:39:50.334Z,0.81
2023-03-06T05:42:16.774Z,0.82
2023-03-06T05:44:43.174Z,0.84
2023-03-06T05:47:09.709Z,0.83
2023-03-06T05:49:36.906Z,0.83
2023-03-06T05:52:07.696Z,0.90
2023-03-06T05:54:36.307Z,0.89
2023-03-06T05:57:04.858Z,0.82
2023-03-06T05:59:33.020Z,0.84
2023-03-06T06:02:01.331Z,0.81
2023-03-06T06:04:27.986Z,0.78
2023-03-06T06:06:57.918Z,0.77
2023-03-06T06:09:25.106Z,0.78
2023-03-06T06:11:58.145Z,0.82
2023-03-06T06:14:24.851Z,0.85
2023-03-06T06:16:51.594Z,0.83
2023-03-06T06:19:20.890Z,0.87
2023-03-06T06:21:52.442Z,0.86
2023-03-06T06:24:21.262Z,0.91
2023-03-06T06:26:50.305Z,0.89
2023-03-06T06:29:16.687Z,0.83
2023-03-06T06:31:43.312Z,0.95
2023-03-06T06:34:12.198Z,0.96
2023-03-06T06:36:38.736Z,0.98
2023-03-06T06:39:06.257Z,1.05
2023-03-06T06:41:53.112Z,1.07
2023-03-06T06:44:20.372Z,1.10
2023-03-06T06:49:34.250Z,1.11
2023-03-06T06:52:00.951Z,1.16
2023-03-06T06:54:27.398Z,1.26
2023-03-06T06:56:54.393Z,1.25
2023-03-06T06:59:23.518Z,1.30
2023-03-06T07:01:51.364Z,1.35
2023-03-06T07:04:19.156Z,1.37
2023-03-06T07:06:48.735Z,1.35
2023-03-06T07:09:15.227Z,1.37
2023-03-06T07:11:41.810Z,1.37
2023-03-06T07:14:08.808Z,1.39
2023-03-06T07:16:35.563Z,1.45
2023-03-06T07:19:01.979Z,1.53
2023-03-06T07:21:28.395Z,1.56
2023-03-06T07:23:57.185Z,1.57
2023-03-06T07:26:24.150Z,1.62
2023-03-06T07:28:53.471Z,1.61
2023-03-06T07:31:22.375Z,1.60
2023-03-06T07:33:49.161Z,1.69
2023-03-06T07:36:15.745Z,1.65
2023-03-06T07:38:44.905Z,1.64
2023-03-06T07:41:13.594Z,1.71
2023-03-06T07:43:41.263Z,1.75
2023-03-06T07:46:08.853Z,1.87
2023-03-06T07:48:36.940Z,1.91
2023-03-06T07:51:06.323Z,1.95
2023-03-06T07:53:34.119Z,2.02
2023-03-06T07:56:00.771Z,2.03
2023-03-06T07:58:27.425Z,2.04
2023-03-06T08:00:53.822Z,2.07
2023-03-06T08:03:20.250Z,2.12
2023-03-06T08:05:46.654Z,2.23
2023-03-06T08:08:15.978Z,2.30
2023-03-06T08:10:48.957Z,2.45
2023-03-06T08:13:15.320Z,2.52
2023-03-06T08:15:47.519Z,2.58
2023-03-06T08:18:14.035Z,2.66
2023-03-06T08:20:40.406Z,2.81
2023-03-06T08:23:06.748Z,2.90
2023-03-06T08:25:33.116Z,3.05
2023-03-06T08:27:59.475Z,3.19
2023-03-06T08:30:25.890Z,3.38
2023-03-06T08:32:52.446Z,3.43
2023-03-06T08:35:18.854Z,3.48
2023-03-06T08:37:45.299Z,3.62
2023-03-06T08:40:12.658Z,3.79
2023-03-06T08:42:39.208Z,3.77
2023-03-06T08:45:07.053Z,3.69
2023-03-06T08:47:34.966Z,3.89
2023-03-06T08:50:01.425Z,3.74
2023-03-06T08:52:27.864Z,3.80
2023-03-06T08:54:54.335Z,3.88
2023-03-06T08:57:20.775Z,3.95
2023-03-06T08:59:47.229Z,3.92
2023-03-06T09:02:15.291Z,3.91
2023-03-06T09:04:41.806Z,3.93
2023-03-06T09:07:08.245Z,3.94
2023-03-06T09:09:34.653Z,3.94
2023-03-06T09:12:01.101Z,3.93
2023-03-06T09:14:27.586Z,3.79
2023-03-06T09:16:54.101Z,3.89
2023-03-06T09:19:20.926Z,3.82
2023-03-06T09:21:48.459Z,3.83
2023-03-06T09:24:15.045Z,3.87
2023-03-06T09:26:46.301Z,3.82
2023-03-06T09:29:16.209Z,3.75
2023-03-06T09:31:45.552Z,3.81
2023-03-06T09:34:12.060Z,3.91
2023-03-06T09:36:55.045Z,3.85
2023-03-06T09:39:22.982Z,3.74
2023-03-06T09:41:50.697Z,3.63
2023-03-06T09:44:21.432Z,3.56
2023-03-06T09:47:00.162Z,3.46
2023-03-06T09:49:48.020Z,3.47
2023-03-06T09:52:31.484Z,3.47
2023-03-06T09:55:11.728Z,3.44
2023-03-06T09:57:52.401Z,3.42
2023-03-06T10:00:33.585Z,3.37
2023-03-06T10:03:18.004Z,3.43
2023-03-06T10:05:50.124Z,3.41
2023-03-06T10:08:23.030Z,3.33
2023-03-06T10:10:57.580Z,3.21
2023-03-06T10:13:45.216Z,3.18
2023-03-06T10:16:20.682Z,3.21
2023-03-06T10:18:47.215Z,3.16
2023-03-06T10:21:25.575Z,3.22
2023-03-06T10:23:55.034Z,3.24
2023-03-06T10:26:30.356Z,3.26
2023-03-06T10:29:12.074Z,3.27
2023-03-06T10:31:49.258Z,3.28
2023-03-06T10:34:24.322Z,3.35
2023-03-06T10:36:50.894Z,3.47
2023-03-06T10:39:20.976Z,3.52
2023-03-06T10:41:49.218Z,3.49
2023-03-06T10:44:15.590Z,3.51
2023-03-06T10:46:45.273Z,3.57
2023-03-06T10:49:14.728Z,3.65
2023-03-06T10:51:56.824Z,3.69
2023-03-06T10:54:23.283Z,3.86
2023-03-06T10:56:49.657Z,3.90
2023-03-06T10:59:18.912Z,3.83
2023-03-06T11:01:48.488Z,3.91
2023-03-06T11:04:26.602Z,3.95
2023-03-06T11:07:09.124Z,4.08
2023-03-06T11:09:36.152Z,4.10
2023-03-06T11:12:24.061Z,4.16
2023-03-06T11:15:18.119Z,4.21
2023-03-06T11:17:49.189Z,4.40
2023-03-06T11:20:21.461Z,4.49
2023-03-06T11:22:56.034Z,4.55
2023-03-06T11:25:28.972Z,4.61
2023-03-06T11:28:00.322Z,4.72
2023-03-06T11:30:37.413Z,4.80
2023-03-06T11:33:14.567Z,4.80
2023-03-06T11:35:56.263Z,4.92
2023-03-06T11:38:27.281Z,4.90
2023-03-06T11:40:58.772Z,4.94
2023-03-06T11:43:48.562Z,4.74
2023-03-06T11:46:26.323Z,4.74
2023-03-06T11:49:17.276Z,4.75
2023-03-06T11:51:51.621Z,4.85
2023-03-06T11:54:18.014Z,4.80
2023-03-06T11:57:04.440Z,4.80
2023-03-06T12:00:02.373Z,4.77
2023-03-06T12:02:42.966Z,4.66
2023-03-06T12:05:23.102Z,4.69
2023-03-06T12:08:12.652Z,4.78
2023-03-06T12:10:51.876Z,4.84
2023-03-06T12:13:49.914Z,4.78
2023-03-06T12:16:40.708Z,4.76
2023-03-06T12:19:24.327Z,4.64
2023-03-06T12:22:08.124Z,4.47
2023-03-06T12:24:43.372Z,4.54
2023-03-06T12:27:19.893Z,4.44
2023-03-06T12:30:08.991Z,4.55
2023-03-06T12:32:52.105Z,4.70
2023-03-06T12:35:33.446Z,4.86
2023-03-06T12:38:28.860Z,4.93
2023-03-06T12:41:22.831Z,4.99
2023-03-06T12:43:49.125Z,4.87
2023-03-06T12:46:18.843Z,4.90
2023-03-06T12:48:53.070Z,4.88
2023-03-06T12:51:21.405Z,4.92
2023-03-06T12:53:49.778Z,4.88
2023-03-06T12:56:18.377Z,4.93
2023-03-06T12:59:02.717Z,5.01
2023-03-06T13:01:47.370Z,4.88
2023-03-06T13:04:49.323Z,4.85
2023-03-06T13:07:27.929Z,4.88
2023-03-06T13:10:11.573Z,4.69
2023-03-06T13:12:55.953Z,4.52
2023-03-06T13:15:37.683Z,4.56
2023-03-06T13:18:22.214Z,4.49
2023-03-06T13:20:55.606Z,4.36
2023-03-06T13:23:35.188Z,4.22
2023-03-06T13:26:26.628Z,4.20
2023-03-06T13:28:54.726Z,4.26
2023-03-06T13:31:33.512Z,4.23
2023-03-06T13:34:05.334Z,4.23
2023-03-06T13:36:33.722Z,4.22
2023-03-06T13:39:01.564Z,4.29
2023-03-06T13:41:30.963Z,4.25
2023-03-06T13:44:25.314Z,4.27
2023-03-06T13:47:01.770Z,4.26
2023-03-06T13:49:29.283Z,4.22
2023-03-06T13:51:55.622Z,4.26
2023-03-06T13:54:33.668Z,4.22
2023-03-06T13:57:26.048Z,4.08
2023-03-06T14:00:12.086Z,4.00
2023-03-06T14:02:58.707Z,3.96
2023-03-06T14:05:58.949Z,3.94
2023-03-06T14:08:31.269Z,4.05
2023-03-06T14:11:04.779Z,4.15
2023-03-06T14:13:47.843Z,4.17
2023-03-06T14:16:21.171Z,4.24
2023-03-06T14:18:50.478Z,4.30
2023-03-06T14:21:30.721Z,4.25
2023-03-06T14:24:00.638Z,4.26
2023-03-06T14:26:31.758Z,4.29
2023-03-06T14:29:00.116Z,4.17
2023-03-06T14:31:36.364Z,4.10
2023-03-06T14:34:05.507Z,3.90
2023-03-06T14:36:36.689Z,3.67
2023-03-06T14:39:08.848Z,3.52
2023-03-06T14:41:36.580Z,3.44
2023-03-06T14:44:17.707Z,3.35
2023-03-06T14:46:46.379Z,3.25
2023-03-06T14:49:18.166Z,3.27
2023-03-06T14:52:00.553Z,3.36
2023-03-06T14:54:31.325Z,3.38
2023-03-06T14:57:13.540Z,3.33
2023-03-06T14:59:54.426Z,3.28
2023-03-06T15:02:28.241Z,3.20
2023-03-06T15:05:00.275Z,3.19
2023-03-06T15:07:30.593Z,3.22
2023-03-06T15:09:58.530Z,3.12
2023-03-06T15:12:29.685Z,3.12
2023-03-06T15:15:19.358Z,3.12
2023-03-06T15:17:47.617Z,3.15
2023-03-06T15:20:43.492Z,3.16
2023-03-06T15:23:19.128Z,3.03
2023-03-06T15:25:54.958Z,3.02
2023-03-06T15:28:30.380Z,3.00
2023-03-06T15:31:21.666Z,2.86
2023-03-06T15:34:06.401Z,2.83
2023-03-06T15:36:35.108Z,2.78
2023-03-06T15:39:01.713Z,2.65
2023-03-06T15:41:47.755Z,2.60
2023-03-06T15:44:15.467Z,2.50
2023-03-06T15:46:44.603Z,2.50
2023-03-06T15:49:19.653Z,2.54
2023-03-06T15:51:46.140Z,2.60
2023-03-06T15:54:13.006Z,2.25
2023-03-06T15:57:05.244Z,2.13
2023-03-06T15:59:50.870Z,2.08
2023-03-06T16:02:20.348Z,2.16
2023-03-06T16:04:53.981Z,2.03
2023-03-06T16:07:40.030Z,2.00
2023-03-06T16:10:15.800Z,1.98
2023-03-06T16:12:52.047Z,1.98
2023-03-06T16:15:34.630Z,1.90
2023-03-06T16:18:01.224Z,1.94
2023-03-06T16:20:41.651Z,1.96
2023-03-06T16:23:17.202Z,1.83
2023-03-06T16:25:48.573Z,1.78
2023-03-06T16:28:16.499Z,1.85
2023-03-06T16:30:55.166Z,1.78
2023-03-06T16:33:25.075Z,1.81
2023-03-06T16:36:03.953Z,1.79
2023-03-06T16:38:47.291Z,1.75
2023-03-06T16:41:14.769Z,1.80
2023-03-06T16:43:41.200Z,1.74
2023-03-06T16:46:18.266Z,1.66
2023-03-06T16:48:58.475Z,1.60
2023-03-06T16:54:14.578Z,1.58
2023-03-06T16:56:41.621Z,1.52
2023-03-06T16:59:08.255Z,1.53
2023-03-06T17:01:34.968Z,1.52
2023-03-06T17:04:01.604Z,1.47
2023-03-06T17:06:30.178Z,1.51
2023-03-06T17:08:58.050Z,1.49
2023-03-06T17:11:25.022Z,1.41
2023-03-06T17:13:51.519Z,1.39
2023-03-06T17:16:18.026Z,1.36
2023-03-06T17:19:08.845Z,1.34
2023-03-06T17:21:45.967Z,1.33
2023-03-06T17:24:38.006Z,1.31
2023-03-06T17:27:10.632Z,1.32
2023-03-06T17:29:51.824Z,1.28
2023-03-06T17:35:20.419Z,1.28
2023-03-06T17:40:58.633Z,1.42
2023-03-06T17:43:59.255Z,1.43
2023-03-06T17:52:48.694Z,1.50
2023-03-06T18:04:37.727Z,1.64
2023-03-06T18:14:14.327Z,1.68
2023-03-06T18:20:36.860Z,1.57
2023-03-06T18:23:19.924Z,1.54
2023-03-06T18:26:21.319Z,1.54
2023-03-06T18:32:40.860Z,1.61
2023-03-06T18:38:11.196Z,1.58
2023-03-06T18:53:31.120Z,1.77
2023-03-06T18:56:06.682Z,1.85
2023-03-06T18:58:49.913Z,1.87
2023-03-06T19:01:43.873Z,1.88
2023-03-06T19:04:48.498Z,1.83
2023-03-06T19:07:30.972Z,1.89
2023-03-06T19:10:03.215Z,1.90
2023-03-06T19:15:33.673Z,1.82
2023-03-06T19:18:26.966Z,1.92
2023-03-06T19:21:37.162Z,1.96
2023-03-06T19:24:26.412Z,1.96
2023-03-06T19:27:08.340Z,1.99
2023-03-06T19:29:37.960Z,2.07
2023-03-06T19:32:17.727Z,2.03
2023-03-06T19:34:47.649Z,1.98
2023-03-06T19:37:23.396Z,1.90
2023-03-06T19:40:03.369Z,1.93
2023-03-06T19:42:41.772Z,1.90
2023-03-06T19:45:18.051Z,1.92
2023-03-06T19:47:46.776Z,1.99
2023-03-06T19:50:25.363Z,2.01
2023-03-06T19:52:59.918Z,1.89
2023-03-06T19:55:36.697Z,1.79
2023-03-06T19:58:22.283Z,1.87
2023-03-06T20:00:56.666Z,1.85
2023-03-06T20:06:31.842Z,1.88
2023-03-06T20:09:01.565Z,1.80
2023-03-06T20:14:34.343Z,1.91
2023-03-06T20:17:12.799Z,1.86
2023-03-06T20:19:53.262Z,1.88
2023-03-06T20:25:13.048Z,1.87
2023-03-06T20:27:56.210Z,1.87
2023-03-06T20:30:37.861Z,1.83
2023-03-06T20:33:35.485Z,1.81
2023-03-06T20:36:27.005Z,1.75
2023-03-06T20:39:05.767Z,1.72
2023-03-06T20:42:16.273Z,1.69
2023-03-06T20:44:56.640Z,1.78
2023-03-06T20:47:27.481Z,1.73
2023-03-06T20:50:06.305Z,1.70
2023-03-06T20:52:56.026Z,1.69
2023-03-06T20:55:29.349Z,1.70
2023-03-06T20:58:12.232Z,1.65
2023-03-06T21:00:54.653Z,1.55
2023-03-06T21:03:41.733Z,1.51
2023-03-06T21:06:23.175Z,1.60
2023-03-06T21:09:19.512Z,1.57
2023-03-06T21:12:06.356Z,1.58
2023-03-06T21:17:34.145Z,1.67
2023-03-06T21:20:17.277Z,1.65
2023-03-06T21:23:09.544Z,1.62
2023-03-06T21:28:39.164Z,1.63
2023-03-06T21:37:48.340Z,1.72
2023-03-06T21:40:14.918Z,1.72
2023-03-06T21:42:41.774Z,1.66
2023-03-06T21:45:14.457Z,1.78
2023-03-06T21:47:41.089Z,1.79
2023-03-06T21:50:12.121Z,1.75
2023-03-06T21:52:38.811Z,1.74
2023-03-06T21:55:06.048Z,1.72
2023-03-06T21:57:32.666Z,1.77
2023-03-06T22:00:08.577Z,1.77
2023-03-06T22:03:09.976Z,1.83
2023-03-06T22:06:02.826Z,1.79
2023-03-06T22:08:41.188Z,1.72
2023-03-06T22:17:23.636Z,1.80
2023-03-06T22:23:00.818Z,1.69
2023-03-06T22:25:37.076Z,1.69
2023-03-06T22:28:25.891Z,1.75
2023-03-06T22:33:48.880Z,1.68
2023-03-06T22:39:37.188Z,1.66
2023-03-06T22:42:24.671Z,1.71
2023-03-06T22:45:24.712Z,1.64
2023-03-06T22:50:59.098Z,1.58
2023-03-06T22:53:48.141Z,1.62
2023-03-06T22:56:46.353Z,1.58
2023-03-06T22:59:18.225Z,1.62
2023-03-06T23:01:44.894Z,1.61
2023-03-06T23:04:17.176Z,1.55
2023-03-06T23:06:50.185Z,1.55
2023-03-06T23:09:25.514Z,1.60
2023-03-06T23:11:54.378Z,1.49
2023-03-06T23:14:21.262Z,1.49
2023-03-06T23:16:48.839Z,1.46
2023-03-06T23:19:19.416Z,1.48
2023-03-06T23:21:46.340Z,1.48
2023-03-06T23:24:20.340Z,1.55
2023-03-06T23:26:50.131Z,1.60
2023-03-06T23:29:22.502Z,1.53
2023-03-06T23:32:02.789Z,1.55
2023-03-06T23:34:37.764Z,1.55
2023-03-06T23:37:10.564Z,1.54
2023-03-06T23:39:44.758Z,1.57
2023-03-06T23:42:22.035Z,1.53
2023-03-06T23:44:55.832Z,1.46
2023-03-06T23:47:48.604Z,1.50
2023-03-06T23:50:21.316Z,1.46
2023-03-06T23:52:50.702Z,1.51
2023-03-06T23:55:26.167Z,1.54
2023-03-06T23:58:50.850Z,1.62
